Saint Bernard Grove, Louisiana
Current Conditions -  °F | °C
As of 1:53 AM on Sunday 26 Oct 2014 (Local Time) from KNEW Reporting Station
Clear Clear  
Wind Chill: 70°   Ceiling: Unl
Heat Index: 70°   Visibility: 10mi
Dew Point: 61°   Wind: 8mph
Humidity: 73%   Direction: 360°N
Pressure: 30.06"   Gusts: NA
Location:  29.9486°N, 89.8975°W
Report Text: KNEW 260653Z 36007KT 10SM CLR 21/16 A3006 RMK AO2 SLP172 T02110161
Loading
Personal Weather Stations






























Interactive Weather Map
Tropical Storm Tracking
New forecast layout! Learn more

10-Day Weather Forecast

Advertisements
Track Severe Weather on mobile